sensor_id;sensor_type;location;lat;lon;timestamp;temperature;humidity
30385;DHT22;17181;51.002;4.096;2023-06-22T15:29:10;19.20;99.90
30385;DHT22;17181;51.002;4.096;2023-06-22T15:31:36;19.20;99.90
30385;DHT22;17181;51.002;4.096;2023-06-22T15:34:06;19.20;99.90
30385;DHT22;17181;51.002;4.096;2023-06-22T15:36:35;19.30;99.90
30385;DHT22;17181;51.002;4.096;2023-06-22T15:39:01;19.30;99.90
30385;DHT22;17181;51.002;4.096;2023-06-22T15:41:26;19.40;99.90
30385;DHT22;17181;51.002;4.096;2023-06-22T15:43:53;19.40;99.90
30385;DHT22;17181;51.002;4.096;2023-06-22T15:46:19;19.50;99.90
30385;DHT22;17181;51.002;4.096;2023-06-22T15:48:46;19.60;99.90
30385;DHT22;17181;51.002;4.096;2023-06-22T15:51:12;19.60;99.90
30385;DHT22;17181;51.002;4.096;2023-06-22T15:53:40;19.70;99.90
30385;DHT22;17181;51.002;4.096;2023-06-22T15:56:05;19.70;99.90
30385;DHT22;17181;51.002;4.096;2023-06-22T15:58:35;19.70;99.90
30385;DHT22;17181;51.002;4.096;2023-06-22T16:01:02;19.80;99.90
30385;DHT22;17181;51.002;4.096;2023-06-22T16:03:29;19.80;99.90
30385;DHT22;17181;51.002;4.096;2023-06-22T16:05:54;19.80;99.90
30385;DHT22;17181;51.002;4.096;2023-06-22T16:08:20;19.80;99.90
30385;DHT22;17181;51.002;4.096;2023-06-22T16:10:46;19.90;99.90
30385;DHT22;17181;51.002;4.096;2023-06-22T16:13:12;20.00;99.90
30385;DHT22;17181;51.002;4.096;2023-06-22T16:15:38;20.00;99.90
30385;DHT22;17181;51.002;4.096;2023-06-22T16:18:04;20.10;99.90
30385;DHT22;17181;51.002;4.096;2023-06-22T16:20:30;20.20;99.90
30385;DHT22;17181;51.002;4.096;2023-06-22T16:22:56;20.20;99.90
30385;DHT22;17181;51.002;4.096;2023-06-22T16:25:21;20.40;99.90
30385;DHT22;17181;51.002;4.096;2023-06-22T16:27:47;20.50;99.90
30385;DHT22;17181;51.002;4.096;2023-06-22T16:30:13;20.70;99.90
30385;DHT22;17181;51.002;4.096;2023-06-22T16:32:48;20.80;99.90
30385;DHT22;17181;51.002;4.096;2023-06-22T16:35:14;20.90;99.90
30385;DHT22;17181;51.002;4.096;2023-06-22T16:37:40;21.00;99.90
30385;DHT22;17181;51.002;4.096;2023-06-22T16:40:06;21.00;99.90
30385;DHT22;17181;51.002;4.096;2023-06-22T16:42:34;21.00;99.90
30385;DHT22;17181;51.002;4.096;2023-06-22T16:45:00;21.10;99.90
30385;DHT22;17181;51.002;4.096;2023-06-22T16:47:26;21.10;99.90
30385;DHT22;17181;51.002;4.096;2023-06-22T16:49:53;21.10;99.90
30385;DHT22;17181;51.002;4.096;2023-06-22T16:52:19;21.10;99.90
30385;DHT22;17181;51.002;4.096;2023-06-22T16:54:46;21.10;99.90
30385;DHT22;17181;51.002;4.096;2023-06-22T16:57:14;21.20;99.90
30385;DHT22;17181;51.002;4.096;2023-06-22T16:59:39;21.20;99.90
30385;DHT22;17181;51.002;4.096;2023-06-22T17:02:05;21.20;99.90
30385;DHT22;17181;51.002;4.096;2023-06-22T17:04:34;21.20;99.90
30385;DHT22;17181;51.002;4.096;2023-06-22T17:07:08;21.20;99.90
30385;DHT22;17181;51.002;4.096;2023-06-22T17:09:37;21.20;99.90
30385;DHT22;17181;51.002;4.096;2023-06-22T17:12:03;21.20;99.90
30385;DHT22;17181;51.002;4.096;2023-06-22T17:14:29;21.20;99.90
30385;DHT22;17181;51.002;4.096;2023-06-22T17:16:55;21.20;99.90
30385;DHT22;17181;51.002;4.096;2023-06-22T17:19:22;21.30;99.90
30385;DHT22;17181;51.002;4.096;2023-06-22T17:21:48;21.30;99.90
30385;DHT22;17181;51.002;4.096;2023-06-22T17:24:18;21.30;99.90
30385;DHT22;17181;51.002;4.096;2023-06-22T17:27:02;21.40;99.90
30385;DHT22;17181;51.002;4.096;2023-06-22T17:29:29;21.40;99.90
30385;DHT22;17181;51.002;4.096;2023-06-22T17:32:04;21.40;99.90
30385;DHT22;17181;51.002;4.096;2023-06-22T17:34:31;21.50;99.90
30385;DHT22;17181;51.002;4.096;2023-06-22T17:36:58;21.50;99.90
30385;DHT22;17181;51.002;4.096;2023-06-22T17:39:26;21.50;99.90
30385;DHT22;17181;51.002;4.096;2023-06-22T17:41:53;21.50;99.90
30385;DHT22;17181;51.002;4.096;2023-06-22T17:44:20;21.50;99.90
30385;DHT22;17181;51.002;4.096;2023-06-22T17:46:46;21.50;99.90
30385;DHT22;17181;51.002;4.096;2023-06-22T17:49:16;21.50;99.90
30385;DHT22;17181;51.002;4.096;2023-06-22T17:51:44;21.50;99.90
30385;DHT22;17181;51.002;4.096;2023-06-22T17:54:11;21.50;99.90
30385;DHT22;17181;51.002;4.096;2023-06-22T17:56:37;21.50;99.90
30385;DHT22;17181;51.002;4.096;2023-06-22T17:59:03;21.50;99.90
30385;DHT22;17181;51.002;4.096;2023-06-22T18:01:38;21.50;99.90
30385;DHT22;17181;51.002;4.096;2023-06-22T18:04:15;21.40;99.90
30385;DHT22;17181;51.002;4.096;2023-06-22T18:06:44;21.40;99.90
30385;DHT22;17181;51.002;4.096;2023-06-22T18:09:12;21.40;99.90
30385;DHT22;17181;51.002;4.096;2023-06-22T18:11:44;21.40;99.90
30385;DHT22;17181;51.002;4.096;2023-06-22T18:14:11;21.40;99.90
30385;DHT22;17181;51.002;4.096;2023-06-22T18:16:40;21.40;99.90
30385;DHT22;17181;51.002;4.096;2023-06-22T18:19:08;21.40;99.90
30385;DHT22;17181;51.002;4.096;2023-06-22T18:21:36;21.40;99.90
30385;DHT22;17181;51.002;4.096;2023-06-22T18:24:02;21.40;99.90
30385;DHT22;17181;51.002;4.096;2023-06-22T18:26:28;21.40;99.90
30385;DHT22;17181;51.002;4.096;2023-06-22T18:28:55;21.40;99.90
30385;DHT22;17181;51.002;4.096;2023-06-22T18:31:22;21.40;99.90
30385;DHT22;17181;51.002;4.096;2023-06-22T18:33:58;21.40;99.90
30385;DHT22;17181;51.002;4.096;2023-06-22T18:36:26;21.40;99.90
30385;DHT22;17181;51.002;4.096;2023-06-22T18:38:54;21.40;99.90
30385;DHT22;17181;51.002;4.096;2023-06-22T18:41:34;21.30;99.90
30385;DHT22;17181;51.002;4.096;2023-06-22T18:44:01;21.30;99.90
30385;DHT22;17181;51.002;4.096;2023-06-22T18:46:35;21.30;99.90
30385;DHT22;17181;51.002;4.096;2023-06-22T18:51:56;21.30;99.90
30385;DHT22;17181;51.002;4.096;2023-06-22T18:56:56;21.20;99.90
30385;DHT22;17181;51.002;4.096;2023-06-22T19:02:46;21.20;99.90
30385;DHT22;17181;51.002;4.096;2023-06-22T19:10:40;21.00;99.90
30385;DHT22;17181;51.002;4.096;2023-06-22T19:16:02;20.90;99.90
30385;DHT22;17181;51.002;4.096;2023-06-22T19:18:41;20.90;99.90
30385;DHT22;17181;51.002;4.096;2023-06-22T19:21:11;20.90;99.90
30385;DHT22;17181;51.002;4.096;2023-06-22T19:23:39;20.90;99.90
30385;DHT22;17181;51.002;4.096;2023-06-22T19:26:13;20.80;99.90
30385;DHT22;17181;51.002;4.096;2023-06-22T19:28:50;20.80;99.90
30385;DHT22;17181;51.002;4.096;2023-06-22T19:31:18;20.80;99.90
30385;DHT22;17181;51.002;4.096;2023-06-22T19:33:44;20.70;99.90
30385;DHT22;17181;51.002;4.096;2023-06-22T19:36:10;20.70;99.90
30385;DHT22;17181;51.002;4.096;2023-06-22T19:38:40;20.60;99.90
30385;DHT22;17181;51.002;4.096;2023-06-22T19:41:09;20.60;99.90
30385;DHT22;17181;51.002;4.096;2023-06-22T19:43:35;20.60;99.90
30385;DHT22;17181;51.002;4.096;2023-06-22T19:46:01;20.50;99.90
30385;DHT22;17181;51.002;4.096;2023-06-22T19:48:29;20.40;99.90
30385;DHT22;17181;51.002;4.096;2023-06-22T19:51:01;20.40;99.90
30385;DHT22;17181;51.002;4.096;2023-06-22T19:53:27;20.40;99.90
30385;DHT22;17181;51.002;4.096;2023-06-22T19:55:53;20.40;99.90
30385;DHT22;17181;51.002;4.096;2023-06-22T19:58:20;20.30;99.90
30385;DHT22;17181;51.002;4.096;2023-06-22T20:00:47;20.20;99.90
30385;DHT22;17181;51.002;4.096;2023-06-22T20:03:29;20.20;99.90
30385;DHT22;17181;51.002;4.096;2023-06-22T20:06:13;20.10;99.90
30385;DHT22;17181;51.002;4.096;2023-06-22T20:08:46;20.10;99.90
30385;DHT22;17181;51.002;4.096;2023-06-22T20:11:12;20.10;99.90
30385;DHT22;17181;51.002;4.096;2023-06-22T20:13:52;20.00;99.90
30385;DHT22;17181;51.002;4.096;2023-06-22T20:16:18;20.00;99.90
30385;DHT22;17181;51.002;4.096;2023-06-22T20:18:47;19.90;99.90
30385;DHT22;17181;51.002;4.096;2023-06-22T20:21:13;19.90;99.90
30385;DHT22;17181;51.002;4.096;2023-06-22T20:23:40;19.80;99.90
30385;DHT22;17181;51.002;4.096;2023-06-22T20:26:12;19.80;99.90
30385;DHT22;17181;51.002;4.096;2023-06-22T20:28:43;19.80;99.90
30385;DHT22;17181;51.002;4.096;2023-06-22T20:31:09;19.70;99.90
30385;DHT22;17181;51.002;4.096;2023-06-22T20:33:37;19.70;99.90
30385;DHT22;17181;51.002;4.096;2023-06-22T20:36:07;19.70;99.90
30385;DHT22;17181;51.002;4.096;2023-06-22T20:38:34;19.70;99.90
30385;DHT22;17181;51.002;4.096;2023-06-22T20:41:02;19.60;99.90
30385;DHT22;17181;51.002;4.096;2023-06-22T20:43:31;19.60;99.90
30385;DHT22;17181;51.002;4.096;2023-06-22T20:45:56;19.60;99.90
30385;DHT22;17181;51.002;4.096;2023-06-22T20:48:24;19.50;99.90
30385;DHT22;17181;51.002;4.096;2023-06-22T20:50:50;19.50;99.90
30385;DHT22;17181;51.002;4.096;2023-06-22T20:53:16;19.40;99.90
30385;DHT22;17181;51.002;4.096;2023-06-22T20:55:43;19.40;99.90
30385;DHT22;17181;51.002;4.096;2023-06-22T20:58:10;19.40;99.90
30385;DHT22;17181;51.002;4.096;2023-06-22T21:00:36;19.40;99.90
30385;DHT22;17181;51.002;4.096;2023-06-22T21:03:06;19.30;99.90
30385;DHT22;17181;51.002;4.096;2023-06-22T21:05:33;19.30;99.90
30385;DHT22;17181;51.002;4.096;2023-06-22T21:08:00;19.30;99.90
30385;DHT22;17181;51.002;4.096;2023-06-22T21:10:25;19.20;99.90
30385;DHT22;17181;51.002;4.096;2023-06-22T21:12:51;19.20;99.90
30385;DHT22;17181;51.002;4.096;2023-06-22T21:15:17;19.20;99.90
30385;DHT22;17181;51.002;4.096;2023-06-22T21:17:43;19.10;99.90
30385;DHT22;17181;51.002;4.096;2023-06-22T21:20:09;19.10;99.90
30385;DHT22;17181;51.002;4.096;2023-06-22T21:22:35;19.00;99.90
30385;DHT22;17181;51.002;4.096;2023-06-22T21:25:14;19.10;99.90
30385;DHT22;17181;51.002;4.096;2023-06-22T21:27:42;19.00;99.90
30385;DHT22;17181;51.002;4.096;2023-06-22T21:30:10;18.90;99.90
30385;DHT22;17181;51.002;4.096;2023-06-22T21:32:36;18.90;99.90
30385;DHT22;17181;51.002;4.096;2023-06-22T21:35:02;18.80;99.90
30385;DHT22;17181;51.002;4.096;2023-06-22T21:37:28;18.80;99.90
30385;DHT22;17181;51.002;4.096;2023-06-22T21:39:54;18.80;99.90
30385;DHT22;17181;51.002;4.096;2023-06-22T21:42:20;18.80;99.90
30385;DHT22;17181;51.002;4.096;2023-06-22T21:44:48;18.70;99.90
30385;DHT22;17181;51.002;4.096;2023-06-22T21:47:14;18.70;99.90
30385;DHT22;17181;51.002;4.096;2023-06-22T21:49:40;18.70;99.90
30385;DHT22;17181;51.002;4.096;2023-06-22T21:52:06;18.60;99.90
30385;DHT22;17181;51.002;4.096;2023-06-22T21:54:34;18.60;99.90
30385;DHT22;17181;51.002;4.096;2023-06-22T21:56:59;18.60;99.90
30385;DHT22;17181;51.002;4.096;2023-06-22T21:59:25;18.50;99.90
30385;DHT22;17181;51.002;4.096;2023-06-22T22:01:51;18.50;99.90
30385;DHT22;17181;51.002;4.096;2023-06-22T22:04:17;18.40;99.90
30385;DHT22;17181;51.002;4.096;2023-06-22T22:06:43;18.40;99.90
30385;DHT22;17181;51.002;4.096;2023-06-22T22:09:09;18.30;99.90
30385;DHT22;17181;51.002;4.096;2023-06-22T22:11:34;18.30;99.90
30385;DHT22;17181;51.002;4.096;2023-06-22T22:14:00;18.30;99.90
30385;DHT22;17181;51.002;4.096;2023-06-22T22:16:26;18.30;99.90
30385;DHT22;17181;51.002;4.096;2023-06-22T22:18:52;18.20;99.90
30385;DHT22;17181;51.002;4.096;2023-06-22T22:21:18;18.20;99.90
30385;DHT22;17181;51.002;4.096;2023-06-22T22:23:43;18.10;99.90
30385;DHT22;17181;51.002;4.096;2023-06-22T22:26:10;18.10;99.90
30385;DHT22;17181;51.002;4.096;2023-06-22T22:28:36;18.10;99.90
30385;DHT22;17181;51.002;4.096;2023-06-22T22:31:02;18.10;99.90
30385;DHT22;17181;51.002;4.096;2023-06-22T22:33:27;18.00;99.90
30385;DHT22;17181;51.002;4.096;2023-06-22T22:35:54;18.00;99.90
30385;DHT22;17181;51.002;4.096;2023-06-22T22:38:20;18.00;99.90
30385;DHT22;17181;51.002;4.096;2023-06-22T22:40:45;18.00;99.90
30385;DHT22;17181;51.002;4.096;2023-06-22T22:43:11;18.00;99.90
30385;DHT22;17181;51.002;4.096;2023-06-22T22:45:37;18.00;99.90
30385;DHT22;17181;51.002;4.096;2023-06-22T22:48:03;17.90;99.90
30385;DHT22;17181;51.002;4.096;2023-06-22T22:50:29;17.90;99.90
30385;DHT22;17181;51.002;4.096;2023-06-22T22:52:55;17.90;99.90
30385;DHT22;17181;51.002;4.096;2023-06-22T22:55:21;17.90;99.90
30385;DHT22;17181;51.002;4.096;2023-06-22T22:57:48;17.90;99.90
30385;DHT22;17181;51.002;4.096;2023-06-22T23:00:14;17.80;99.90
30385;DHT22;17181;51.002;4.096;2023-06-22T23:02:44;17.80;99.90
30385;DHT22;17181;51.002;4.096;2023-06-22T23:05:11;17.80;99.90
30385;DHT22;17181;51.002;4.096;2023-06-22T23:07:38;17.80;99.90
30385;DHT22;17181;51.002;4.096;2023-06-22T23:10:04;17.80;99.90
30385;DHT22;17181;51.002;4.096;2023-06-22T23:12:31;17.80;99.90
30385;DHT22;17181;51.002;4.096;2023-06-22T23:14:57;17.70;99.90
30385;DHT22;17181;51.002;4.096;2023-06-22T23:17:23;17.70;99.90
30385;DHT22;17181;51.002;4.096;2023-06-22T23:19:50;17.60;99.90
30385;DHT22;17181;51.002;4.096;2023-06-22T23:22:16;17.60;99.90
30385;DHT22;17181;51.002;4.096;2023-06-22T23:24:42;17.60;99.90
30385;DHT22;17181;51.002;4.096;2023-06-22T23:27:08;17.60;99.90
30385;DHT22;17181;51.002;4.096;2023-06-22T23:29:35;17.60;99.90
30385;DHT22;17181;51.002;4.096;2023-06-22T23:32:01;17.60;99.90
30385;DHT22;17181;51.002;4.096;2023-06-22T23:34:28;17.50;99.90
30385;DHT22;17181;51.002;4.096;2023-06-22T23:36:54;17.50;99.90
30385;DHT22;17181;51.002;4.096;2023-06-22T23:39:20;17.50;99.90
30385;DHT22;17181;51.002;4.096;2023-06-22T23:41:46;17.50;99.90
30385;DHT22;17181;51.002;4.096;2023-06-22T23:44:12;17.40;99.90
30385;DHT22;17181;51.002;4.096;2023-06-22T23:46:38;17.40;99.90
30385;DHT22;17181;51.002;4.096;2023-06-22T23:49:04;17.40;99.90
30385;DHT22;17181;51.002;4.096;2023-06-22T23:51:29;17.30;99.90
30385;DHT22;17181;51.002;4.096;2023-06-22T23:53:56;17.30;99.90
30385;DHT22;17181;51.002;4.096;2023-06-22T23:56:22;17.30;99.90
30385;DHT22;17181;51.002;4.096;2023-06-22T23:58:51;17.20;99.90
